sensor_id;sensor_type;location;lat;lon;timestamp;pressure;altitude;pressure_sealevel;temperature;humidity
58739;BME280;44512;53.046;18.604;2022-12-07T00:00:35;100995.79;;;4.55;72.90
58739;BME280;44512;53.046;18.604;2022-12-07T00:11:09;100997.63;;;4.54;72.72
58739;BME280;44512;53.046;18.604;2022-12-07T00:21:34;100982.87;;;4.50;72.56
58739;BME280;44512;53.046;18.604;2022-12-07T00:32:00;100978.44;;;4.41;72.48
58739;BME280;44512;53.046;18.604;2022-12-07T00:42:29;100977.52;;;4.32;72.42
58739;BME280;44512;53.046;18.604;2022-12-07T00:52:57;100974.91;;;4.23;72.40
58739;BME280;44512;53.046;18.604;2022-12-07T01:03:25;100964.80;;;4.16;72.46
58739;BME280;44512;53.046;18.604;2022-12-07T01:13:57;100960.74;;;4.12;72.46
58739;BME280;44512;53.046;18.604;2022-12-07T01:24:22;100943.32;;;4.08;72.58
58739;BME280;44512;53.046;18.604;2022-12-07T01:34:51;100938.93;;;4.07;72.75
58739;BME280;44512;53.046;18.604;2022-12-07T01:55:51;100924.56;;;4.08;73.15
58739;BME280;44512;53.046;18.604;2022-12-07T02:06:19;100901.59;;;4.06;73.25
58739;BME280;44512;53.046;18.604;2022-12-07T02:27:39;100876.27;;;4.00;73.60
58739;BME280;44512;53.046;18.604;2022-12-07T02:37:51;100873.20;;;3.95;73.40
58739;BME280;44512;53.046;18.604;2022-12-07T02:48:12;100870.83;;;3.92;73.27
58739;BME280;44512;53.046;18.604;2022-12-07T03:19:36;100854.70;;;3.84;73.59
58739;BME280;44512;53.046;18.604;2022-12-07T03:30:10;100847.96;;;3.80;73.97
58739;BME280;44512;53.046;18.604;2022-12-07T03:40:40;100838.93;;;3.81;74.23
58739;BME280;44512;53.046;18.604;2022-12-07T04:01:28;100818.59;;;3.88;74.82
58739;BME280;44512;53.046;18.604;2022-12-07T04:11:57;100812.91;;;3.91;75.27
58739;BME280;44512;53.046;18.604;2022-12-07T04:22:25;100810.77;;;3.95;75.65
58739;BME280;44512;53.046;18.604;2022-12-07T04:32:54;100814.29;;;3.95;75.92
58739;BME280;44512;53.046;18.604;2022-12-07T04:43:22;100803.41;;;3.97;75.84
58739;BME280;44512;53.046;18.604;2022-12-07T04:53:51;100802.27;;;3.99;75.77
58739;BME280;44512;53.046;18.604;2022-12-07T05:04:19;100791.39;;;4.01;75.65
58739;BME280;44512;53.046;18.604;2022-12-07T05:14:47;100792.23;;;4.01;75.41
58739;BME280;44512;53.046;18.604;2022-12-07T05:25:16;100772.81;;;3.99;75.06
58739;BME280;44512;53.046;18.604;2022-12-07T05:35:44;100780.14;;;3.97;74.83
58739;BME280;44512;53.046;18.604;2022-12-07T05:46:12;100784.99;;;3.94;74.69
58739;BME280;44512;53.046;18.604;2022-12-07T05:56:41;100797.16;;;3.88;74.14
58739;BME280;44512;53.046;18.604;2022-12-07T06:07:11;100799.92;;;3.78;73.81
58739;BME280;44512;53.046;18.604;2022-12-07T06:17:38;100791.98;;;3.69;73.20
58739;BME280;44512;53.046;18.604;2022-12-07T06:28:06;100797.24;;;3.60;72.62
58739;BME280;44512;53.046;18.604;2022-12-07T06:38:34;100802.22;;;3.55;72.28
58739;BME280;44512;53.046;18.604;2022-12-07T06:49:04;100808.19;;;3.49;71.92
58739;BME280;44512;53.046;18.604;2022-12-07T06:59:31;100809.64;;;3.44;71.88
58739;BME280;44512;53.046;18.604;2022-12-07T07:10:00;100807.71;;;3.36;71.78
58739;BME280;44512;53.046;18.604;2022-12-07T07:20:29;100802.00;;;3.31;71.77
58739;BME280;44512;53.046;18.604;2022-12-07T07:30:57;100817.66;;;3.26;71.69
58739;BME280;44512;53.046;18.604;2022-12-07T07:41:25;100803.89;;;3.21;71.78
58739;BME280;44512;53.046;18.604;2022-12-07T07:51:53;100818.84;;;3.13;71.60
58739;BME280;44512;53.046;18.604;2022-12-07T08:02:22;100811.72;;;3.04;71.55
58739;BME280;44512;53.046;18.604;2022-12-07T08:12:50;100821.05;;;3.00;71.67
58739;BME280;44512;53.046;18.604;2022-12-07T08:23:19;100814.99;;;2.98;71.79
58739;BME280;44512;53.046;18.604;2022-12-07T08:33:47;100811.32;;;2.99;71.66
58739;BME280;44512;53.046;18.604;2022-12-07T08:44:15;100804.29;;;2.98;71.82
58739;BME280;44512;53.046;18.604;2022-12-07T08:54:44;100803.02;;;3.02;71.89
58739;BME280;44512;53.046;18.604;2022-12-07T09:05:12;100803.41;;;3.07;72.08
58739;BME280;44512;53.046;18.604;2022-12-07T09:15:41;100784.23;;;3.12;72.10
58739;BME280;44512;53.046;18.604;2022-12-07T09:26:10;100767.88;;;3.15;72.02
58739;BME280;44512;53.046;18.604;2022-12-07T09:41:13;100765.35;;;3.13;71.95
58739;BME280;44512;53.046;18.604;2022-12-07T10:01:29;100732.35;;;3.23;72.57
58739;BME280;44512;53.046;18.604;2022-12-07T10:11:31;100715.84;;;3.27;72.62
58739;BME280;44512;53.046;18.604;2022-12-07T10:21:32;100711.71;;;3.33;72.73
58739;BME280;44512;53.046;18.604;2022-12-07T10:31:38;100699.84;;;3.35;72.87
58739;BME280;44512;53.046;18.604;2022-12-07T11:12:29;100661.01;;;3.49;72.72
58739;BME280;44512;53.046;18.604;2022-12-07T11:53:27;100614.37;;;3.52;72.66
58739;BME280;44512;53.046;18.604;2022-12-07T12:03:34;100611.53;;;3.53;72.87
58739;BME280;44512;53.046;18.604;2022-12-07T12:23:59;100592.45;;;3.56;73.06
58739;BME280;44512;53.046;18.604;2022-12-07T12:54:29;100574.70;;;3.47;72.30
58739;BME280;44512;53.046;18.604;2022-12-07T13:14:57;100564.94;;;3.38;72.38
58739;BME280;44512;53.046;18.604;2022-12-07T13:45:27;100552.39;;;3.38;73.14
58739;BME280;44512;53.046;18.604;2022-12-07T13:55:45;100554.90;;;3.40;73.20
58739;BME280;44512;53.046;18.604;2022-12-07T14:16:01;100542.99;;;3.34;73.29
58739;BME280;44512;53.046;18.604;2022-12-07T14:26:12;100549.20;;;3.35;73.46
58739;BME280;44512;53.046;18.604;2022-12-07T14:36:15;100554.71;;;3.33;73.53
58739;BME280;44512;53.046;18.604;2022-12-07T14:46:16;100557.85;;;3.29;73.54
58739;BME280;44512;53.046;18.604;2022-12-07T14:56:17;100551.83;;;3.27;73.55
58739;BME280;44512;53.046;18.604;2022-12-07T15:06:32;100549.46;;;3.24;73.60
58739;BME280;44512;53.046;18.604;2022-12-07T15:16:59;100554.13;;;3.22;73.51
58739;BME280;44512;53.046;18.604;2022-12-07T15:27:30;100554.45;;;3.19;73.40
58739;BME280;44512;53.046;18.604;2022-12-07T15:37:56;100559.25;;;3.15;73.33
58739;BME280;44512;53.046;18.604;2022-12-07T15:48:25;100558.75;;;3.11;73.30
58739;BME280;44512;53.046;18.604;2022-12-07T15:58:53;100572.59;;;3.07;73.30
58739;BME280;44512;53.046;18.604;2022-12-07T16:09:22;100586.12;;;3.05;73.48
58739;BME280;44512;53.046;18.604;2022-12-07T16:19:50;100589.46;;;3.07;73.54
58739;BME280;44512;53.046;18.604;2022-12-07T16:30:19;100584.11;;;3.07;73.35
58739;BME280;44512;53.046;18.604;2022-12-07T16:40:47;100584.41;;;3.04;73.20
58739;BME280;44512;53.046;18.604;2022-12-07T16:51:16;100572.04;;;3.03;72.94
58739;BME280;44512;53.046;18.604;2022-12-07T17:01:44;100579.38;;;3.01;72.91
58739;BME280;44512;53.046;18.604;2022-12-07T17:12:12;100578.02;;;2.97;72.40
58739;BME280;44512;53.046;18.604;2022-12-07T17:22:41;100591.30;;;2.89;71.65
58739;BME280;44512;53.046;18.604;2022-12-07T17:33:09;100597.27;;;2.83;71.40
58739;BME280;44512;53.046;18.604;2022-12-07T17:43:38;100596.89;;;2.78;71.31
58739;BME280;44512;53.046;18.604;2022-12-07T17:54:07;100590.86;;;2.76;71.56
58739;BME280;44512;53.046;18.604;2022-12-07T18:04:34;100599.87;;;2.75;71.72
58739;BME280;44512;53.046;18.604;2022-12-07T18:15:03;100603.30;;;2.67;71.89
58739;BME280;44512;53.046;18.604;2022-12-07T18:25:31;100595.73;;;2.63;72.43
58739;BME280;44512;53.046;18.604;2022-12-07T18:36:01;100603.24;;;2.59;72.44
58739;BME280;44512;53.046;18.604;2022-12-07T18:46:28;100603.36;;;2.57;72.36
58739;BME280;44512;53.046;18.604;2022-12-07T18:56:57;100598.35;;;2.54;71.84
58739;BME280;44512;53.046;18.604;2022-12-07T19:07:25;100611.00;;;2.52;71.35
58739;BME280;44512;53.046;18.604;2022-12-07T19:17:53;100607.94;;;2.47;70.60
58739;BME280;44512;53.046;18.604;2022-12-07T19:28:22;100614.05;;;2.40;70.12
58739;BME280;44512;53.046;18.604;2022-12-07T19:38:50;100616.49;;;2.33;70.17
58739;BME280;44512;53.046;18.604;2022-12-07T19:49:20;100623.23;;;2.27;69.88
58739;BME280;44512;53.046;18.604;2022-12-07T19:59:47;100639.02;;;2.21;69.56
58739;BME280;44512;53.046;18.604;2022-12-07T20:10:16;100628.55;;;2.09;69.60
58739;BME280;44512;53.046;18.604;2022-12-07T20:20:53;100639.23;;;2.09;69.46
58739;BME280;44512;53.046;18.604;2022-12-07T20:31:15;100646.16;;;2.02;69.41
58739;BME280;44512;53.046;18.604;2022-12-07T20:41:41;100648.11;;;2.00;69.33
58739;BME280;44512;53.046;18.604;2022-12-07T20:52:09;100638.59;;;1.98;69.31
58739;BME280;44512;53.046;18.604;2022-12-07T21:02:39;100644.77;;;1.98;69.43
58739;BME280;44512;53.046;18.604;2022-12-07T21:13:06;100654.89;;;1.95;69.60
58739;BME280;44512;53.046;18.604;2022-12-07T21:23:35;100669.47;;;2.00;69.94
58739;BME280;44512;53.046;18.604;2022-12-07T21:34:03;100679.87;;;2.03;69.74
58739;BME280;44512;53.046;18.604;2022-12-07T21:44:33;100683.22;;;2.05;69.64
58739;BME280;44512;53.046;18.604;2022-12-07T21:55:00;100693.77;;;2.07;69.77
58739;BME280;44512;53.046;18.604;2022-12-07T22:05:28;100679.28;;;2.09;69.89
58739;BME280;44512;53.046;18.604;2022-12-07T22:15:57;100698.66;;;2.12;69.55
58739;BME280;44512;53.046;18.604;2022-12-07T22:26:25;100699.96;;;2.07;69.24
58739;BME280;44512;53.046;18.604;2022-12-07T22:36:53;100693.22;;;2.03;69.29
58739;BME280;44512;53.046;18.604;2022-12-07T22:47:22;100720.19;;;2.00;69.28
58739;BME280;44512;53.046;18.604;2022-12-07T22:57:50;100712.93;;;1.93;68.94
58739;BME280;44512;53.046;18.604;2022-12-07T23:08:19;100722.05;;;1.90;69.03
58739;BME280;44512;53.046;18.604;2022-12-07T23:18:47;100707.45;;;1.85;69.05
58739;BME280;44512;53.046;18.604;2022-12-07T23:29:15;100719.10;;;1.93;69.57
58739;BME280;44512;53.046;18.604;2022-12-07T23:39:44;100711.93;;;1.94;69.67
58739;BME280;44512;53.046;18.604;2022-12-07T23:50:12;100702.38;;;1.91;69.37
